createdAt,value
2023-04-09T15:40:13.749Z,19.73
2023-04-09T15:43:20.236Z,14.73
2023-04-09T15:46:24.270Z,17.88
2023-04-09T15:49:30.465Z,12.60
2023-04-09T15:52:34.841Z,13.88
2023-04-09T15:55:42.906Z,12.77
2023-04-09T15:58:47.000Z,14.80
2023-04-09T16:01:53.922Z,15.68
2023-04-09T16:04:57.944Z,16.33
2023-04-09T16:08:04.136Z,14.27
2023-04-09T16:11:10.583Z,12.32
2023-04-09T16:14:16.645Z,14.57
2023-04-09T16:20:26.430Z,14.82
2023-04-09T16:23:30.924Z,12.95
2023-04-09T16:26:38.874Z,15.10
2023-04-09T16:29:43.036Z,15.63
2023-04-09T16:32:49.257Z,16.75
2023-04-09T16:38:59.801Z,16.35
2023-04-09T16:42:06.594Z,13.30
2023-04-09T16:45:13.297Z,14.05
2023-04-09T16:48:17.325Z,13.80
2023-04-09T16:51:23.498Z,13.50
2023-04-09T16:54:27.581Z,16.77
2023-04-09T16:57:36.021Z,14.40
2023-04-09T17:00:40.294Z,15.23
2023-04-09T17:03:46.350Z,15.05
2023-04-09T17:06:51.207Z,16.23
2023-04-09T17:09:57.368Z,18.80
2023-04-09T17:13:03.542Z,15.70
2023-04-09T17:16:11.147Z,14.88
2023-04-09T17:19:15.390Z,15.20
2023-04-09T17:22:21.610Z,15.63
2023-04-09T17:25:25.884Z,12.60
2023-04-09T17:28:34.342Z,17.73
2023-04-09T17:31:40.603Z,16.00
2023-04-09T17:34:48.955Z,16.30
2023-04-09T17:37:53.482Z,19.92
2023-04-09T17:40:59.935Z,15.60
2023-04-09T17:44:06.396Z,16.42
2023-04-09T17:47:12.967Z,15.73
2023-04-09T17:50:16.988Z,16.60
2023-04-09T17:53:23.140Z,20.60
2023-04-09T17:56:27.109Z,16.75
2023-04-09T17:59:35.908Z,17.00
2023-04-09T18:02:40.397Z,13.27
2023-04-09T18:05:46.763Z,14.23
2023-04-09T18:08:51.858Z,15.68
2023-04-09T18:12:00.229Z,13.50
2023-04-09T18:15:07.267Z,15.00
2023-04-09T18:18:13.308Z,15.07
2023-04-09T18:24:25.723Z,13.48
2023-04-09T18:27:29.672Z,19.50
2023-04-09T18:30:38.922Z,33.20
2023-04-09T18:33:43.427Z,37.78
2023-04-09T18:36:49.646Z,33.97
2023-04-09T18:39:53.632Z,30.23
2023-04-09T18:42:59.633Z,19.65
2023-04-09T18:49:11.892Z,16.33
2023-04-09T18:55:22.131Z,38.35
2023-04-09T18:58:26.803Z,48.90
2023-04-09T19:01:35.308Z,62.75
2023-04-09T19:04:41.450Z,53.42
2023-04-09T19:07:47.519Z,56.58
2023-04-09T19:13:59.211Z,45.17
2023-04-09T19:17:05.338Z,41.13
2023-04-09T19:20:13.087Z,42.15
2023-04-09T19:23:17.032Z,36.47
2023-04-09T19:26:23.669Z,39.75
2023-04-09T19:29:27.696Z,44.65
2023-04-09T19:32:35.639Z,42.40
2023-04-09T19:35:40.184Z,43.03
2023-04-09T19:38:47.834Z,40.78
2023-04-09T19:41:52.074Z,44.85
2023-04-09T19:44:59.443Z,48.33
2023-04-09T19:48:06.125Z,51.10
2023-04-09T19:51:18.166Z,50.20
2023-04-09T19:54:22.297Z,51.40
2023-04-09T19:57:28.349Z,49.50
2023-04-09T20:00:34.054Z,55.78
2023-04-09T20:03:42.929Z,50.13
2023-04-09T20:06:48.022Z,54.58
2023-04-09T20:09:54.269Z,48.78
2023-04-09T20:12:58.798Z,51.58
2023-04-09T20:16:05.159Z,48.85
2023-04-09T20:19:11.192Z,47.22
2023-04-09T20:22:17.839Z,54.05
2023-04-09T20:25:22.321Z,52.25
2023-04-09T20:28:29.098Z,53.15
2023-04-09T20:31:34.437Z,55.05
2023-04-09T20:34:43.067Z,48.63
2023-04-09T20:37:48.677Z,53.70
2023-04-09T20:40:54.992Z,64.65
2023-04-09T20:43:59.214Z,65.50
2023-04-09T20:47:06.640Z,65.35
2023-04-09T20:50:13.565Z,68.28
2023-04-09T20:53:20.100Z,70.85
2023-04-09T20:56:24.106Z,75.82
2023-04-09T20:59:30.120Z,71.03
2023-04-09T21:02:34.579Z,77.45
2023-04-09T21:05:42.846Z,74.43
2023-04-09T21:08:46.828Z,77.70
2023-04-09T21:11:53.126Z,80.97
2023-04-09T21:14:57.297Z,69.55
2023-04-09T21:18:03.319Z,67.82
2023-04-09T21:24:19.701Z,72.15
2023-04-09T21:27:24.196Z,74.00
2023-04-09T21:30:31.696Z,82.80
2023-04-09T21:33:38.437Z,94.18
2023-04-09T21:36:46.776Z,92.20
2023-04-09T21:39:53.148Z,80.22
2023-04-09T21:42:59.272Z,78.60
2023-04-09T21:46:03.904Z,83.35
2023-04-09T21:49:10.044Z,74.47
2023-04-09T21:52:16.670Z,84.57
2023-04-09T21:55:23.014Z,80.43
2023-04-09T21:58:26.950Z,89.53
2023-04-09T22:01:35.086Z,93.35
2023-04-09T22:04:41.877Z,101.22
2023-04-09T22:07:49.871Z,88.03
2023-04-09T22:10:55.071Z,100.15
2023-04-09T22:14:01.143Z,102.32
2023-04-09T22:20:11.373Z,104.25
2023-04-09T22:23:17.238Z,107.20
2023-04-09T22:26:23.421Z,107.88
2023-04-09T22:29:27.476Z,96.93
2023-04-09T22:32:34.684Z,98.47
2023-04-09T22:35:39.048Z,106.57
2023-04-09T22:38:47.325Z,99.78
2023-04-09T22:41:51.618Z,112.68
2023-04-09T22:44:57.786Z,114.63
2023-04-09T22:48:02.044Z,106.07
2023-04-09T22:51:08.444Z,119.22
2023-04-09T22:54:16.300Z,111.43
2023-04-09T22:57:22.266Z,101.97
2023-04-09T23:03:33.817Z,110.03
2023-04-09T23:06:38.145Z,97.38
2023-04-09T23:09:47.067Z,104.82
2023-04-09T23:12:51.146Z,100.07
2023-04-09T23:15:57.243Z,93.82
2023-04-09T23:19:01.438Z,83.65
2023-04-09T23:22:08.070Z,76.72
2023-04-09T23:25:14.376Z,77.78
2023-04-09T23:28:20.434Z,86.30
2023-04-09T23:34:30.409Z,81.50
2023-04-09T23:37:34.564Z,92.15
2023-04-09T23:40:42.509Z,85.32
2023-04-09T23:43:46.804Z,83.22
2023-04-09T23:46:53.333Z,76.78
2023-04-09T23:49:57.592Z,81.55
2023-04-09T23:53:03.959Z,83.65
2023-04-09T23:56:10.908Z,84.63
2023-04-09T23:59:16.966Z,84.47
